sensor_id;sensor_type;location;lat;lon;timestamp;P1;durP1;ratioP1;P2;durP2;ratioP2
24216;SDS011;12356;49.386;8.688;2023-04-03T00:01:44;3.70;;;2.40;;
24216;SDS011;12356;49.386;8.688;2023-04-03T00:04:15;4.65;;;2.40;;
24216;SDS011;12356;49.386;8.688;2023-04-03T00:06:45;4.07;;;2.55;;
24216;SDS011;12356;49.386;8.688;2023-04-03T00:09:16;3.75;;;2.75;;
24216;SDS011;12356;49.386;8.688;2023-04-03T00:11:46;4.57;;;2.67;;
24216;SDS011;12356;49.386;8.688;2023-04-03T00:14:17;3.85;;;2.60;;
24216;SDS011;12356;49.386;8.688;2023-04-03T00:16:48;4.05;;;2.60;;
24216;SDS011;12356;49.386;8.688;2023-04-03T00:19:18;4.38;;;2.53;;
24216;SDS011;12356;49.386;8.688;2023-04-03T00:21:49;3.72;;;2.65;;
24216;SDS011;12356;49.386;8.688;2023-04-03T00:24:20;4.70;;;2.78;;
24216;SDS011;12356;49.386;8.688;2023-04-03T00:26:51;5.25;;;2.70;;
24216;SDS011;12356;49.386;8.688;2023-04-03T00:29:21;4.35;;;2.65;;
24216;SDS011;12356;49.386;8.688;2023-04-03T00:31:52;6.03;;;2.95;;
24216;SDS011;12356;49.386;8.688;2023-04-03T00:34:22;4.05;;;2.40;;
24216;SDS011;12356;49.386;8.688;2023-04-03T00:36:53;4.70;;;2.65;;
24216;SDS011;12356;49.386;8.688;2023-04-03T00:39:23;7.25;;;2.50;;
24216;SDS011;12356;49.386;8.688;2023-04-03T00:41:54;5.95;;;2.90;;
24216;SDS011;12356;49.386;8.688;2023-04-03T00:46:58;4.90;;;2.20;;
24216;SDS011;12356;49.386;8.688;2023-04-03T00:49:29;4.45;;;2.40;;
24216;SDS011;12356;49.386;8.688;2023-04-03T00:52:00;3.55;;;2.47;;
24216;SDS011;12356;49.386;8.688;2023-04-03T00:54:31;6.60;;;2.72;;
24216;SDS011;12356;49.386;8.688;2023-04-03T00:57:01;3.75;;;2.15;;
24216;SDS011;12356;49.386;8.688;2023-04-03T00:59:34;5.90;;;2.42;;
24216;SDS011;12356;49.386;8.688;2023-04-03T01:02:08;4.07;;;2.45;;
24216;SDS011;12356;49.386;8.688;2023-04-03T01:04:40;5.07;;;2.38;;
24216;SDS011;12356;49.386;8.688;2023-04-03T01:07:15;4.47;;;3.00;;
24216;SDS011;12356;49.386;8.688;2023-04-03T01:09:48;4.07;;;2.22;;
24216;SDS011;12356;49.386;8.688;2023-04-03T01:12:23;4.18;;;2.40;;
24216;SDS011;12356;49.386;8.688;2023-04-03T01:15:09;4.38;;;2.40;;
24216;SDS011;12356;49.386;8.688;2023-04-03T01:17:43;7.53;;;2.85;;
24216;SDS011;12356;49.386;8.688;2023-04-03T01:26:11;3.72;;;2.40;;
24216;SDS011;12356;49.386;8.688;2023-04-03T01:28:42;5.13;;;2.35;;
24216;SDS011;12356;49.386;8.688;2023-04-03T01:33:54;3.67;;;2.20;;
24216;SDS011;12356;49.386;8.688;2023-04-03T01:36:29;3.90;;;2.30;;
24216;SDS011;12356;49.386;8.688;2023-04-03T01:39:01;3.58;;;2.35;;
24216;SDS011;12356;49.386;8.688;2023-04-03T01:41:32;4.22;;;2.50;;
24216;SDS011;12356;49.386;8.688;2023-04-03T01:44:03;3.03;;;2.20;;
24216;SDS011;12356;49.386;8.688;2023-04-03T01:46:34;5.68;;;2.15;;
24216;SDS011;12356;49.386;8.688;2023-04-03T01:49:05;4.03;;;2.13;;
24216;SDS011;12356;49.386;8.688;2023-04-03T01:51:36;4.63;;;2.30;;
24216;SDS011;12356;49.386;8.688;2023-04-03T01:54:06;4.38;;;2.17;;
24216;SDS011;12356;49.386;8.688;2023-04-03T01:56:37;3.05;;;2.15;;
24216;SDS011;12356;49.386;8.688;2023-04-03T01:59:08;4.67;;;2.20;;
24216;SDS011;12356;49.386;8.688;2023-04-03T02:01:39;6.70;;;2.22;;
24216;SDS011;12356;49.386;8.688;2023-04-03T02:04:10;3.63;;;2.03;;
24216;SDS011;12356;49.386;8.688;2023-04-03T02:06:42;3.88;;;2.40;;
24216;SDS011;12356;49.386;8.688;2023-04-03T02:09:12;4.90;;;2.20;;
24216;SDS011;12356;49.386;8.688;2023-04-03T02:11:43;4.10;;;2.00;;
24216;SDS011;12356;49.386;8.688;2023-04-03T02:14:13;5.40;;;2.08;;
24216;SDS011;12356;49.386;8.688;2023-04-03T02:16:44;4.22;;;2.08;;
24216;SDS011;12356;49.386;8.688;2023-04-03T02:19:15;4.45;;;1.95;;
24216;SDS011;12356;49.386;8.688;2023-04-03T02:21:46;3.15;;;2.00;;
24216;SDS011;12356;49.386;8.688;2023-04-03T02:24:16;3.22;;;1.92;;
24216;SDS011;12356;49.386;8.688;2023-04-03T02:26:47;4.30;;;2.20;;
24216;SDS011;12356;49.386;8.688;2023-04-03T02:29:17;3.60;;;2.03;;
24216;SDS011;12356;49.386;8.688;2023-04-03T02:31:48;3.55;;;2.00;;
24216;SDS011;12356;49.386;8.688;2023-04-03T02:34:19;3.25;;;2.28;;
24216;SDS011;12356;49.386;8.688;2023-04-03T02:36:49;3.40;;;2.10;;
24216;SDS011;12356;49.386;8.688;2023-04-03T02:39:20;2.92;;;2.20;;
24216;SDS011;12356;49.386;8.688;2023-04-03T02:41:51;3.88;;;2.00;;
24216;SDS011;12356;49.386;8.688;2023-04-03T02:44:21;3.75;;;1.90;;
24216;SDS011;12356;49.386;8.688;2023-04-03T02:46:53;5.47;;;2.07;;
24216;SDS011;12356;49.386;8.688;2023-04-03T02:49:24;2.55;;;1.90;;
24216;SDS011;12356;49.386;8.688;2023-04-03T02:51:54;4.20;;;2.20;;
24216;SDS011;12356;49.386;8.688;2023-04-03T02:54:25;4.13;;;2.20;;
24216;SDS011;12356;49.386;8.688;2023-04-03T02:56:58;2.83;;;2.28;;
24216;SDS011;12356;49.386;8.688;2023-04-03T02:59:29;3.72;;;1.98;;
24216;SDS011;12356;49.386;8.688;2023-04-03T03:02:00;6.53;;;2.25;;
24216;SDS011;12356;49.386;8.688;2023-04-03T03:04:30;3.67;;;2.13;;
24216;SDS011;12356;49.386;8.688;2023-04-03T03:07:01;2.75;;;2.00;;
24216;SDS011;12356;49.386;8.688;2023-04-03T03:09:32;3.42;;;2.25;;
24216;SDS011;12356;49.386;8.688;2023-04-03T03:12:03;5.47;;;2.40;;
24216;SDS011;12356;49.386;8.688;2023-04-03T03:14:34;2.78;;;2.00;;
24216;SDS011;12356;49.386;8.688;2023-04-03T03:17:04;2.92;;;1.98;;
24216;SDS011;12356;49.386;8.688;2023-04-03T03:19:35;3.17;;;2.20;;
24216;SDS011;12356;49.386;8.688;2023-04-03T03:22:05;4.18;;;2.40;;
24216;SDS011;12356;49.386;8.688;2023-04-03T03:24:36;4.72;;;2.13;;
24216;SDS011;12356;49.386;8.688;2023-04-03T03:27:06;4.05;;;2.13;;
24216;SDS011;12356;49.386;8.688;2023-04-03T03:29:37;4.57;;;2.28;;
24216;SDS011;12356;49.386;8.688;2023-04-03T03:32:07;4.40;;;2.28;;
24216;SDS011;12356;49.386;8.688;2023-04-03T03:34:38;2.63;;;2.05;;
24216;SDS011;12356;49.386;8.688;2023-04-03T03:37:08;4.03;;;2.10;;
24216;SDS011;12356;49.386;8.688;2023-04-03T03:39:39;4.07;;;2.20;;
24216;SDS011;12356;49.386;8.688;2023-04-03T03:42:10;5.72;;;2.25;;
24216;SDS011;12356;49.386;8.688;2023-04-03T03:44:41;2.90;;;2.00;;
24216;SDS011;12356;49.386;8.688;2023-04-03T03:47:11;4.50;;;2.17;;
24216;SDS011;12356;49.386;8.688;2023-04-03T03:49:42;5.43;;;2.20;;
24216;SDS011;12356;49.386;8.688;2023-04-03T03:52:13;3.70;;;2.50;;
24216;SDS011;12356;49.386;8.688;2023-04-03T03:54:43;3.13;;;2.08;;
24216;SDS011;12356;49.386;8.688;2023-04-03T03:57:14;6.55;;;2.50;;
24216;SDS011;12356;49.386;8.688;2023-04-03T03:59:45;4.00;;;2.25;;
24216;SDS011;12356;49.386;8.688;2023-04-03T04:02:17;2.35;;;1.92;;
24216;SDS011;12356;49.386;8.688;2023-04-03T04:04:48;4.30;;;2.17;;
24216;SDS011;12356;49.386;8.688;2023-04-03T04:07:19;3.40;;;2.22;;
24216;SDS011;12356;49.386;8.688;2023-04-03T04:09:49;6.13;;;2.40;;
24216;SDS011;12356;49.386;8.688;2023-04-03T04:12:20;8.25;;;2.35;;
24216;SDS011;12356;49.386;8.688;2023-04-03T04:14:50;4.15;;;2.20;;
24216;SDS011;12356;49.386;8.688;2023-04-03T04:17:21;3.67;;;2.20;;
24216;SDS011;12356;49.386;8.688;2023-04-03T04:19:52;4.53;;;2.40;;
24216;SDS011;12356;49.386;8.688;2023-04-03T04:22:22;3.72;;;2.30;;
24216;SDS011;12356;49.386;8.688;2023-04-03T04:24:53;4.10;;;2.47;;
24216;SDS011;12356;49.386;8.688;2023-04-03T04:27:23;5.28;;;2.25;;
24216;SDS011;12356;49.386;8.688;2023-04-03T04:29:54;3.22;;;2.17;;
24216;SDS011;12356;49.386;8.688;2023-04-03T04:32:24;4.45;;;2.28;;
24216;SDS011;12356;49.386;8.688;2023-04-03T04:34:55;6.70;;;2.22;;
24216;SDS011;12356;49.386;8.688;2023-04-03T04:37:25;4.47;;;2.25;;
24216;SDS011;12356;49.386;8.688;2023-04-03T04:39:56;4.22;;;2.58;;
24216;SDS011;12356;49.386;8.688;2023-04-03T04:42:27;5.65;;;2.47;;
24216;SDS011;12356;49.386;8.688;2023-04-03T04:44:57;5.13;;;2.50;;
24216;SDS011;12356;49.386;8.688;2023-04-03T04:47:28;4.43;;;2.70;;
24216;SDS011;12356;49.386;8.688;2023-04-03T04:49:59;3.80;;;2.35;;
24216;SDS011;12356;49.386;8.688;2023-04-03T04:52:30;5.47;;;2.80;;
24216;SDS011;12356;49.386;8.688;2023-04-03T04:55:00;4.45;;;2.90;;
24216;SDS011;12356;49.386;8.688;2023-04-03T04:57:31;3.25;;;2.40;;
24216;SDS011;12356;49.386;8.688;2023-04-03T05:00:01;3.60;;;2.40;;
24216;SDS011;12356;49.386;8.688;2023-04-03T05:02:33;4.68;;;2.50;;
24216;SDS011;12356;49.386;8.688;2023-04-03T05:05:03;7.07;;;2.67;;
24216;SDS011;12356;49.386;8.688;2023-04-03T05:07:34;5.68;;;2.30;;
24216;SDS011;12356;49.386;8.688;2023-04-03T05:10:05;5.00;;;2.75;;
24216;SDS011;12356;49.386;8.688;2023-04-03T05:12:37;4.22;;;2.60;;
24216;SDS011;12356;49.386;8.688;2023-04-03T05:15:07;3.42;;;2.30;;
24216;SDS011;12356;49.386;8.688;2023-04-03T05:17:38;4.60;;;2.38;;
24216;SDS011;12356;49.386;8.688;2023-04-03T05:20:09;3.97;;;2.42;;
24216;SDS011;12356;49.386;8.688;2023-04-03T05:22:40;7.00;;;2.60;;
24216;SDS011;12356;49.386;8.688;2023-04-03T05:25:10;4.60;;;2.60;;
24216;SDS011;12356;49.386;8.688;2023-04-03T05:27:41;4.53;;;2.55;;
24216;SDS011;12356;49.386;8.688;2023-04-03T05:30:12;6.50;;;2.80;;
24216;SDS011;12356;49.386;8.688;2023-04-03T05:32:43;5.47;;;2.60;;
24216;SDS011;12356;49.386;8.688;2023-04-03T05:35:13;5.55;;;2.60;;
24216;SDS011;12356;49.386;8.688;2023-04-03T05:37:44;6.63;;;2.80;;
24216;SDS011;12356;49.386;8.688;2023-04-03T05:40:15;7.75;;;2.80;;
24216;SDS011;12356;49.386;8.688;2023-04-03T05:42:45;4.75;;;2.75;;
24216;SDS011;12356;49.386;8.688;2023-04-03T05:45:16;5.40;;;2.78;;
24216;SDS011;12356;49.386;8.688;2023-04-03T05:47:47;5.45;;;2.95;;
24216;SDS011;12356;49.386;8.688;2023-04-03T05:50:17;6.50;;;3.00;;
24216;SDS011;12356;49.386;8.688;2023-04-03T05:52:48;6.15;;;3.42;;
24216;SDS011;12356;49.386;8.688;2023-04-03T05:57:51;6.55;;;3.20;;
24216;SDS011;12356;49.386;8.688;2023-04-03T06:00:21;5.63;;;3.15;;
24216;SDS011;12356;49.386;8.688;2023-04-03T06:02:52;5.68;;;3.13;;
24216;SDS011;12356;49.386;8.688;2023-04-03T06:05:23;6.03;;;3.35;;
24216;SDS011;12356;49.386;8.688;2023-04-03T06:07:54;6.07;;;3.50;;
24216;SDS011;12356;49.386;8.688;2023-04-03T06:10:25;6.35;;;3.50;;
24216;SDS011;12356;49.386;8.688;2023-04-03T06:12:56;5.57;;;3.30;;
24216;SDS011;12356;49.386;8.688;2023-04-03T06:15:26;8.88;;;3.63;;
24216;SDS011;12356;49.386;8.688;2023-04-03T06:17:57;6.15;;;3.30;;
24216;SDS011;12356;49.386;8.688;2023-04-03T06:20:28;9.00;;;3.70;;
24216;SDS011;12356;49.386;8.688;2023-04-03T06:22:58;6.78;;;3.67;;
24216;SDS011;12356;49.386;8.688;2023-04-03T06:25:29;6.43;;;3.83;;
24216;SDS011;12356;49.386;8.688;2023-04-03T06:27:59;8.60;;;3.50;;
24216;SDS011;12356;49.386;8.688;2023-04-03T06:30:30;6.63;;;3.95;;
24216;SDS011;12356;49.386;8.688;2023-04-03T06:33:01;8.20;;;3.40;;
24216;SDS011;12356;49.386;8.688;2023-04-03T06:35:32;9.77;;;3.85;;
24216;SDS011;12356;49.386;8.688;2023-04-03T06:38:04;6.60;;;3.25;;
24216;SDS011;12356;49.386;8.688;2023-04-03T06:40:39;6.32;;;3.40;;
24216;SDS011;12356;49.386;8.688;2023-04-03T06:43:10;9.57;;;3.60;;
24216;SDS011;12356;49.386;8.688;2023-04-03T06:45:40;7.10;;;3.75;;
24216;SDS011;12356;49.386;8.688;2023-04-03T06:48:11;6.22;;;3.63;;
24216;SDS011;12356;49.386;8.688;2023-04-03T06:50:42;5.22;;;3.20;;
24216;SDS011;12356;49.386;8.688;2023-04-03T06:53:13;6.47;;;3.22;;
24216;SDS011;12356;49.386;8.688;2023-04-03T06:55:43;7.97;;;3.25;;
24216;SDS011;12356;49.386;8.688;2023-04-03T06:58:14;8.25;;;3.40;;
24216;SDS011;12356;49.386;8.688;2023-04-03T07:00:47;7.15;;;3.33;;
24216;SDS011;12356;49.386;8.688;2023-04-03T07:03:17;6.95;;;3.28;;
24216;SDS011;12356;49.386;8.688;2023-04-03T07:05:48;6.97;;;2.90;;
24216;SDS011;12356;49.386;8.688;2023-04-03T07:08:19;5.68;;;3.05;;
24216;SDS011;12356;49.386;8.688;2023-04-03T07:10:49;6.57;;;2.83;;
24216;SDS011;12356;49.386;8.688;2023-04-03T07:13:20;7.18;;;2.90;;
24216;SDS011;12356;49.386;8.688;2023-04-03T07:15:50;4.72;;;3.03;;
24216;SDS011;12356;49.386;8.688;2023-04-03T07:18:21;5.05;;;2.90;;
24216;SDS011;12356;49.386;8.688;2023-04-03T07:20:52;5.57;;;3.00;;
24216;SDS011;12356;49.386;8.688;2023-04-03T07:23:23;10.05;;;3.00;;
24216;SDS011;12356;49.386;8.688;2023-04-03T07:25:54;6.97;;;2.95;;
24216;SDS011;12356;49.386;8.688;2023-04-03T07:28:25;5.88;;;3.20;;
24216;SDS011;12356;49.386;8.688;2023-04-03T07:31:03;4.78;;;2.80;;
24216;SDS011;12356;49.386;8.688;2023-04-03T07:33:38;5.55;;;2.85;;
24216;SDS011;12356;49.386;8.688;2023-04-03T07:36:09;5.45;;;2.70;;
24216;SDS011;12356;49.386;8.688;2023-04-03T07:38:40;5.70;;;3.00;;
24216;SDS011;12356;49.386;8.688;2023-04-03T07:41:12;7.63;;;2.65;;
24216;SDS011;12356;49.386;8.688;2023-04-03T07:43:45;7.68;;;2.90;;
24216;SDS011;12356;49.386;8.688;2023-04-03T07:46:17;5.65;;;2.67;;
24216;SDS011;12356;49.386;8.688;2023-04-03T07:48:47;4.30;;;2.60;;
24216;SDS011;12356;49.386;8.688;2023-04-03T07:51:18;5.80;;;2.60;;
24216;SDS011;12356;49.386;8.688;2023-04-03T07:53:49;6.25;;;2.67;;
24216;SDS011;12356;49.386;8.688;2023-04-03T07:56:20;6.60;;;2.72;;
24216;SDS011;12356;49.386;8.688;2023-04-03T07:58:51;4.05;;;2.20;;
24216;SDS011;12356;49.386;8.688;2023-04-03T08:01:21;4.70;;;2.40;;
24216;SDS011;12356;49.386;8.688;2023-04-03T08:03:52;6.63;;;2.40;;
24216;SDS011;12356;49.386;8.688;2023-04-03T08:06:22;5.53;;;2.45;;
24216;SDS011;12356;49.386;8.688;2023-04-03T08:08:53;5.25;;;2.45;;
24216;SDS011;12356;49.386;8.688;2023-04-03T08:11:23;3.53;;;1.70;;
24216;SDS011;12356;49.386;8.688;2023-04-03T08:13:56;5.30;;;2.03;;
24216;SDS011;12356;49.386;8.688;2023-04-03T08:16:27;5.13;;;2.17;;
24216;SDS011;12356;49.386;8.688;2023-04-03T08:18:57;3.67;;;2.20;;
24216;SDS011;12356;49.386;8.688;2023-04-03T08:21:28;4.57;;;2.00;;
24216;SDS011;12356;49.386;8.688;2023-04-03T08:23:58;4.63;;;2.17;;
24216;SDS011;12356;49.386;8.688;2023-04-03T08:26:29;4.80;;;1.88;;
24216;SDS011;12356;49.386;8.688;2023-04-03T08:29:00;6.63;;;2.17;;
24216;SDS011;12356;49.386;8.688;2023-04-03T08:31:31;3.33;;;1.80;;
24216;SDS011;12356;49.386;8.688;2023-04-03T08:34:02;3.42;;;1.60;;
24216;SDS011;12356;49.386;8.688;2023-04-03T08:36:32;4.30;;;1.80;;
24216;SDS011;12356;49.386;8.688;2023-04-03T08:39:03;3.83;;;1.60;;
24216;SDS011;12356;49.386;8.688;2023-04-03T08:47:02;3.75;;;1.80;;
24216;SDS011;12356;49.386;8.688;2023-04-03T08:52:27;4.15;;;1.80;;
24216;SDS011;12356;49.386;8.688;2023-04-03T08:55:29;3.40;;;1.70;;
24216;SDS011;12356;49.386;8.688;2023-04-03T09:00:59;5.68;;;1.98;;
24216;SDS011;12356;49.386;8.688;2023-04-03T09:03:36;4.22;;;1.80;;
24216;SDS011;12356;49.386;8.688;2023-04-03T09:06:17;2.58;;;1.40;;
24216;SDS011;12356;49.386;8.688;2023-04-03T09:23:22;5.32;;;1.70;;
24216;SDS011;12356;49.386;8.688;2023-04-03T09:26:17;2.65;;;1.70;;
24216;SDS011;12356;49.386;8.688;2023-04-03T09:28:57;2.83;;;1.50;;
24216;SDS011;12356;49.386;8.688;2023-04-03T09:31:35;3.33;;;1.73;;
24216;SDS011;12356;49.386;8.688;2023-04-03T09:36:54;3.28;;;1.70;;
24216;SDS011;12356;49.386;8.688;2023-04-03T09:39:27;2.90;;;1.60;;
24216;SDS011;12356;49.386;8.688;2023-04-03T09:44:32;4.45;;;1.70;;
24216;SDS011;12356;49.386;8.688;2023-04-03T09:47:17;3.60;;;1.48;;
24216;SDS011;12356;49.386;8.688;2023-04-03T09:50:16;3.65;;;1.25;;
24216;SDS011;12356;49.386;8.688;2023-04-03T09:52:51;3.53;;;1.60;;
24216;SDS011;12356;49.386;8.688;2023-04-03T09:55:25;1.92;;;1.73;;
24216;SDS011;12356;49.386;8.688;2023-04-03T09:58:05;3.42;;;1.40;;
24216;SDS011;12356;49.386;8.688;2023-04-03T10:01:00;3.20;;;1.60;;
24216;SDS011;12356;49.386;8.688;2023-04-03T10:03:33;2.10;;;1.42;;
24216;SDS011;12356;49.386;8.688;2023-04-03T10:06:21;3.17;;;1.48;;
24216;SDS011;12356;49.386;8.688;2023-04-03T10:09:01;3.60;;;1.65;;
24216;SDS011;12356;49.386;8.688;2023-04-03T10:11:35;2.42;;;1.33;;
24216;SDS011;12356;49.386;8.688;2023-04-03T10:14:16;3.33;;;1.40;;
24216;SDS011;12356;49.386;8.688;2023-04-03T10:16:48;3.85;;;1.50;;
24216;SDS011;12356;49.386;8.688;2023-04-03T10:22:37;2.80;;;1.40;;
24216;SDS011;12356;49.386;8.688;2023-04-03T10:28:31;2.88;;;1.35;;
24216;SDS011;12356;49.386;8.688;2023-04-03T10:33:55;2.22;;;1.30;;
24216;SDS011;12356;49.386;8.688;2023-04-03T10:41:55;2.05;;;1.40;;
24216;SDS011;12356;49.386;8.688;2023-04-03T10:44:42;2.85;;;1.35;;
24216;SDS011;12356;49.386;8.688;2023-04-03T10:47:31;3.13;;;1.48;;
24216;SDS011;12356;49.386;8.688;2023-04-03T10:50:36;3.67;;;1.60;;
24216;SDS011;12356;49.386;8.688;2023-04-03T10:53:33;3.17;;;1.48;;
24216;SDS011;12356;49.386;8.688;2023-04-03T10:56:24;4.38;;;1.30;;
24216;SDS011;12356;49.386;8.688;2023-04-03T11:02:06;7.20;;;1.70;;
24216;SDS011;12356;49.386;8.688;2023-04-03T11:04:54;3.05;;;1.73;;
24216;SDS011;12356;49.386;8.688;2023-04-03T11:07:38;3.45;;;1.60;;
24216;SDS011;12356;49.386;8.688;2023-04-03T11:13:11;3.25;;;1.50;;
24216;SDS011;12356;49.386;8.688;2023-04-03T11:15:53;3.13;;;1.48;;
24216;SDS011;12356;49.386;8.688;2023-04-03T11:18:39;2.25;;;1.60;;
24216;SDS011;12356;49.386;8.688;2023-04-03T11:21:20;2.10;;;1.40;;
24216;SDS011;12356;49.386;8.688;2023-04-03T11:23:57;2.42;;;1.58;;
24216;SDS011;12356;49.386;8.688;2023-04-03T11:26:30;4.90;;;1.63;;
24216;SDS011;12356;49.386;8.688;2023-04-03T11:29:13;3.53;;;1.88;;
24216;SDS011;12356;49.386;8.688;2023-04-03T11:32:02;3.55;;;1.40;;
24216;SDS011;12356;49.386;8.688;2023-04-03T11:34:40;2.95;;;1.52;;
24216;SDS011;12356;49.386;8.688;2023-04-03T11:37:17;5.00;;;1.70;;
24216;SDS011;12356;49.386;8.688;2023-04-03T11:40:18;2.58;;;1.60;;
24216;SDS011;12356;49.386;8.688;2023-04-03T11:45:34;2.50;;;1.50;;
24216;SDS011;12356;49.386;8.688;2023-04-03T11:53:46;5.28;;;1.77;;
24216;SDS011;12356;49.386;8.688;2023-04-03T12:01:47;2.88;;;1.70;;
24216;SDS011;12356;49.386;8.688;2023-04-03T12:04:19;4.80;;;1.83;;
24216;SDS011;12356;49.386;8.688;2023-04-03T12:06:53;5.32;;;1.80;;
24216;SDS011;12356;49.386;8.688;2023-04-03T12:15:18;2.50;;;1.70;;
24216;SDS011;12356;49.386;8.688;2023-04-03T12:17:52;6.65;;;2.00;;
24216;SDS011;12356;49.386;8.688;2023-04-03T12:20:45;4.82;;;2.20;;
24216;SDS011;12356;49.386;8.688;2023-04-03T12:23:23;5.90;;;1.80;;
24216;SDS011;12356;49.386;8.688;2023-04-03T12:25:59;4.15;;;2.08;;
24216;SDS011;12356;49.386;8.688;2023-04-03T12:28:37;1.95;;;1.60;;
24216;SDS011;12356;49.386;8.688;2023-04-03T12:31:10;3.42;;;1.80;;
24216;SDS011;12356;49.386;8.688;2023-04-03T12:33:55;2.75;;;1.80;;
24216;SDS011;12356;49.386;8.688;2023-04-03T12:36:44;3.85;;;2.17;;
24216;SDS011;12356;49.386;8.688;2023-04-03T12:39:42;4.13;;;2.13;;
24216;SDS011;12356;49.386;8.688;2023-04-03T12:45:47;3.15;;;1.88;;
24216;SDS011;12356;49.386;8.688;2023-04-03T12:48:31;2.35;;;1.80;;
24216;SDS011;12356;49.386;8.688;2023-04-03T12:51:06;4.10;;;2.00;;
24216;SDS011;12356;49.386;8.688;2023-04-03T12:53:37;3.47;;;1.85;;
24216;SDS011;12356;49.386;8.688;2023-04-03T13:01:56;2.72;;;1.52;;
24216;SDS011;12356;49.386;8.688;2023-04-03T13:04:31;3.33;;;2.17;;
24216;SDS011;12356;49.386;8.688;2023-04-03T13:07:02;3.60;;;2.10;;
24216;SDS011;12356;49.386;8.688;2023-04-03T13:09:32;4.07;;;2.10;;
24216;SDS011;12356;49.386;8.688;2023-04-03T13:12:07;3.58;;;1.80;;
24216;SDS011;12356;49.386;8.688;2023-04-03T13:15:19;4.70;;;1.90;;
24216;SDS011;12356;49.386;8.688;2023-04-03T13:17:43;5.03;;;1.90;;
24216;SDS011;12356;49.386;8.688;2023-04-03T13:20:18;7.05;;;2.10;;
24216;SDS011;12356;49.386;8.688;2023-04-03T13:25:41;4.38;;;1.90;;
24216;SDS011;12356;49.386;8.688;2023-04-03T13:28:15;6.28;;;1.85;;
24216;SDS011;12356;49.386;8.688;2023-04-03T13:30:59;4.75;;;1.60;;
24216;SDS011;12356;49.386;8.688;2023-04-03T13:36:50;3.30;;;1.80;;
24216;SDS011;12356;49.386;8.688;2023-04-03T13:42:13;4.40;;;1.90;;
24216;SDS011;12356;49.386;8.688;2023-04-03T13:44:47;5.22;;;1.77;;
24216;SDS011;12356;49.386;8.688;2023-04-03T13:47:18;2.67;;;1.73;;
24216;SDS011;12356;49.386;8.688;2023-04-03T13:50:12;3.03;;;1.75;;
24216;SDS011;12356;49.386;8.688;2023-04-03T13:53:33;3.45;;;1.80;;
24216;SDS011;12356;49.386;8.688;2023-04-03T13:58:33;3.35;;;2.00;;
24216;SDS011;12356;49.386;8.688;2023-04-03T14:01:39;4.82;;;1.98;;
24216;SDS011;12356;49.386;8.688;2023-04-03T14:04:12;3.05;;;1.67;;
24216;SDS011;12356;49.386;8.688;2023-04-03T14:06:46;4.45;;;1.90;;
24216;SDS011;12356;49.386;8.688;2023-04-03T14:09:18;2.63;;;1.80;;
24216;SDS011;12356;49.386;8.688;2023-04-03T14:11:55;4.07;;;2.00;;
24216;SDS011;12356;49.386;8.688;2023-04-03T14:14:31;3.95;;;1.90;;
24216;SDS011;12356;49.386;8.688;2023-04-03T14:17:10;4.07;;;1.88;;
24216;SDS011;12356;49.386;8.688;2023-04-03T14:22:28;3.80;;;1.77;;
24216;SDS011;12356;49.386;8.688;2023-04-03T14:25:01;3.05;;;1.58;;
24216;SDS011;12356;49.386;8.688;2023-04-03T14:27:35;2.30;;;1.80;;
24216;SDS011;12356;49.386;8.688;2023-04-03T14:30:12;4.38;;;1.80;;
24216;SDS011;12356;49.386;8.688;2023-04-03T14:32:46;4.13;;;1.65;;
24216;SDS011;12356;49.386;8.688;2023-04-03T14:35:18;3.75;;;2.00;;
24216;SDS011;12356;49.386;8.688;2023-04-03T14:37:49;3.88;;;2.00;;
24216;SDS011;12356;49.386;8.688;2023-04-03T14:40:22;2.85;;;1.80;;
24216;SDS011;12356;49.386;8.688;2023-04-03T14:42:57;2.60;;;1.45;;
24216;SDS011;12356;49.386;8.688;2023-04-03T14:45:28;2.05;;;1.50;;
24216;SDS011;12356;49.386;8.688;2023-04-03T14:47:58;4.45;;;1.80;;
24216;SDS011;12356;49.386;8.688;2023-04-03T14:50:29;2.78;;;1.80;;
24216;SDS011;12356;49.386;8.688;2023-04-03T14:53:00;3.03;;;1.58;;
24216;SDS011;12356;49.386;8.688;2023-04-03T14:55:31;2.63;;;1.75;;
24216;SDS011;12356;49.386;8.688;2023-04-03T14:58:02;5.03;;;2.00;;
24216;SDS011;12356;49.386;8.688;2023-04-03T15:00:32;5.22;;;1.88;;
24216;SDS011;12356;49.386;8.688;2023-04-03T15:03:03;3.08;;;1.70;;
24216;SDS011;12356;49.386;8.688;2023-04-03T15:05:34;2.47;;;1.63;;
24216;SDS011;12356;49.386;8.688;2023-04-03T15:08:08;4.68;;;1.75;;
24216;SDS011;12356;49.386;8.688;2023-04-03T15:10:53;3.05;;;1.83;;
24216;SDS011;12356;49.386;8.688;2023-04-03T15:13:25;3.87;;;1.80;;
24216;SDS011;12356;49.386;8.688;2023-04-03T15:15:56;2.67;;;1.60;;
24216;SDS011;12356;49.386;8.688;2023-04-03T15:18:27;3.08;;;1.77;;
24216;SDS011;12356;49.386;8.688;2023-04-03T15:21:05;3.88;;;1.80;;
24216;SDS011;12356;49.386;8.688;2023-04-03T15:23:35;3.28;;;1.70;;
24216;SDS011;12356;49.386;8.688;2023-04-03T15:26:06;3.08;;;1.70;;
24216;SDS011;12356;49.386;8.688;2023-04-03T15:28:40;3.65;;;1.70;;
24216;SDS011;12356;49.386;8.688;2023-04-03T15:31:12;3.65;;;2.00;;
24216;SDS011;12356;49.386;8.688;2023-04-03T15:33:43;3.35;;;1.77;;
24216;SDS011;12356;49.386;8.688;2023-04-03T15:36:13;5.57;;;1.52;;
24216;SDS011;12356;49.386;8.688;2023-04-03T15:38:44;3.13;;;1.63;;
24216;SDS011;12356;49.386;8.688;2023-04-03T15:41:14;3.20;;;1.60;;
24216;SDS011;12356;49.386;8.688;2023-04-03T15:43:45;3.42;;;1.48;;
24216;SDS011;12356;49.386;8.688;2023-04-03T15:46:16;3.50;;;1.90;;
24216;SDS011;12356;49.386;8.688;2023-04-03T15:48:46;3.42;;;1.55;;
24216;SDS011;12356;49.386;8.688;2023-04-03T15:51:17;2.95;;;1.60;;
24216;SDS011;12356;49.386;8.688;2023-04-03T15:53:47;3.25;;;1.30;;
24216;SDS011;12356;49.386;8.688;2023-04-03T15:56:18;3.08;;;1.50;;
24216;SDS011;12356;49.386;8.688;2023-04-03T15:58:48;2.50;;;1.50;;
24216;SDS011;12356;49.386;8.688;2023-04-03T16:01:19;3.22;;;1.42;;
24216;SDS011;12356;49.386;8.688;2023-04-03T16:03:49;3.15;;;1.50;;
24216;SDS011;12356;49.386;8.688;2023-04-03T16:06:20;3.10;;;1.65;;
24216;SDS011;12356;49.386;8.688;2023-04-03T16:08:51;2.58;;;1.40;;
24216;SDS011;12356;49.386;8.688;2023-04-03T16:11:27;2.75;;;1.60;;
24216;SDS011;12356;49.386;8.688;2023-04-03T16:13:58;3.15;;;1.50;;
24216;SDS011;12356;49.386;8.688;2023-04-03T16:16:28;4.55;;;1.65;;
24216;SDS011;12356;49.386;8.688;2023-04-03T16:19:00;4.35;;;1.52;;
24216;SDS011;12356;49.386;8.688;2023-04-03T16:21:31;2.50;;;1.52;;
24216;SDS011;12356;49.386;8.688;2023-04-03T16:24:02;2.75;;;1.58;;
24216;SDS011;12356;49.386;8.688;2023-04-03T16:26:33;2.45;;;1.40;;
24216;SDS011;12356;49.386;8.688;2023-04-03T16:29:04;2.72;;;1.50;;
24216;SDS011;12356;49.386;8.688;2023-04-03T16:31:35;4.60;;;1.52;;
24216;SDS011;12356;49.386;8.688;2023-04-03T16:34:05;1.63;;;1.50;;
24216;SDS011;12356;49.386;8.688;2023-04-03T16:36:36;2.13;;;1.33;;
24216;SDS011;12356;49.386;8.688;2023-04-03T16:39:07;3.53;;;1.63;;
24216;SDS011;12356;49.386;8.688;2023-04-03T16:41:39;3.45;;;1.33;;
24216;SDS011;12356;49.386;8.688;2023-04-03T16:44:10;3.20;;;1.55;;
24216;SDS011;12356;49.386;8.688;2023-04-03T16:46:41;2.60;;;1.35;;
24216;SDS011;12356;49.386;8.688;2023-04-03T16:49:12;2.45;;;1.77;;
24216;SDS011;12356;49.386;8.688;2023-04-03T16:51:42;4.07;;;1.60;;
24216;SDS011;12356;49.386;8.688;2023-04-03T16:54:13;2.45;;;1.40;;
24216;SDS011;12356;49.386;8.688;2023-04-03T16:56:43;2.33;;;1.52;;
24216;SDS011;12356;49.386;8.688;2023-04-03T16:59:14;3.33;;;1.50;;
24216;SDS011;12356;49.386;8.688;2023-04-03T17:01:45;3.42;;;1.30;;
24216;SDS011;12356;49.386;8.688;2023-04-03T17:04:16;3.05;;;1.60;;
24216;SDS011;12356;49.386;8.688;2023-04-03T17:06:46;4.05;;;1.80;;
24216;SDS011;12356;49.386;8.688;2023-04-03T17:09:17;4.30;;;1.60;;
24216;SDS011;12356;49.386;8.688;2023-04-03T17:14:21;2.78;;;1.70;;
24216;SDS011;12356;49.386;8.688;2023-04-03T17:16:51;2.75;;;1.60;;